Time;durP1;ratioP1;P1;durP2;ratioP2;P2;SDS_P1;SDS_P2;PMS_P1;PMS_P2;Temp;Humidity;BMP_temperature;BMP_pressure;BME280_temperature;BME280_humidity;BME280_pressure;Samples;Min_cycle;Max_cycle;Signal;HPM_P1;HPM_P2
2023/03/11 00:00:31;;;;;;;0.90;0.90;;;3.00;99.90;;;;;;5009185;28;20021;-55
2023/03/11 00:03:00;;;;;;;1.00;0.60;;;2.90;99.90;;;;;;5009328;28;20088;-55
2023/03/11 00:05:28;;;;;;;0.85;0.85;;;3.00;99.90;;;;;;5009074;28;20026;-51
2023/03/11 00:07:54;;;;;;;1.92;0.90;;;2.90;99.90;;;;;;5009003;28;20022;-54
2023/03/11 00:10:40;;;;;;;1.25;0.70;;;3.00;99.90;;;;;;5008448;28;20425;-52
2023/03/11 00:13:09;;;;;;;1.23;0.90;;;3.00;99.90;;;;;;4991227;28;20042;-53
2023/03/11 00:15:35;;;;;;;2.90;0.75;;;2.90;99.90;;;;;;4991819;28;20125;-54
2023/03/11 00:18:01;;;;;;;1.17;0.85;;;3.00;99.90;;;;;;4991909;28;20069;-53
2023/03/11 00:20:33;;;;;;;1.52;0.80;;;3.00;99.90;;;;;;4992411;28;20027;-55
2023/03/11 00:22:59;;;;;;;1.65;0.90;;;3.00;99.90;;;;;;4992510;28;20022;-55
2023/03/11 00:25:28;;;;;;;2.33;0.63;;;3.10;99.90;;;;;;4992218;28;20026;-55
2023/03/11 00:27:53;;;;;;;1.20;0.73;;;2.90;99.90;;;;;;4992600;28;20084;-50
2023/03/11 00:30:20;;;;;;;0.85;0.52;;;3.00;99.90;;;;;;4992283;28;20034;-56
2023/03/11 00:32:50;;;;;;;2.10;1.77;;;3.00;99.90;;;;;;4991892;28;20494;-55
2023/03/11 00:35:21;;;;;;;0.60;0.60;;;3.00;99.90;;;;;;4992164;28;20034;-55
2023/03/11 00:37:47;;;;;;;1.75;0.90;;;3.00;99.90;;;;;;4990899;28;20418;-56
2023/03/11 00:40:15;;;;;;;1.23;1.02;;;2.90;99.90;;;;;;4991933;28;20038;-52
2023/03/11 00:42:41;;;;;;;1.13;0.80;;;2.90;99.90;;;;;;4990943;28;20033;-56
2023/03/11 00:45:07;;;;;;;1.60;0.77;;;2.90;99.90;;;;;;4995855;28;20026;-55
2023/03/11 00:47:32;;;;;;;5.85;1.83;;;2.80;99.90;;;;;;4995914;28;20129;-50
2023/03/11 00:49:58;;;;;;;6.40;1.35;;;2.80;99.90;;;;;;4995802;28;20097;-56
2023/03/11 00:52:24;;;;;;;4.07;1.05;;;2.90;99.90;;;;;;5030104;23;20053;-53
2023/03/11 00:54:49;;;;;;;2.40;0.90;;;2.80;99.90;;;;;;5014278;28;20022;-56
2023/03/11 00:57:14;;;;;;;1.75;1.08;;;2.90;99.90;;;;;;5015282;28;20482;-50
2023/03/11 00:59:40;;;;;;;1.55;0.82;;;2.90;99.90;;;;;;5015127;28;20053;-56
2023/03/11 01:02:05;;;;;;;0.73;0.73;;;2.90;99.90;;;;;;5015019;28;20103;-56
2023/03/11 01:04:31;;;;;;;2.63;0.90;;;2.90;99.90;;;;;;5015236;28;20046;-51
2023/03/11 01:06:57;;;;;;;0.88;0.70;;;2.90;99.90;;;;;;5015211;28;20049;-48
2023/03/11 01:09:22;;;;;;;1.58;1.05;;;2.90;99.90;;;;;;5015017;28;20490;-53
2023/03/11 01:11:48;;;;;;;5.22;1.20;;;3.00;99.90;;;;;;5014166;28;20068;-57
2023/03/11 01:14:13;;;;;;;4.00;0.80;;;3.10;99.90;;;;;;5015594;28;20022;-55
2023/03/11 01:16:39;;;;;;;2.85;1.02;;;3.00;99.90;;;;;;5013909;28;20481;-55
2023/03/11 01:19:04;;;;;;;1.65;0.80;;;3.10;99.90;;;;;;5014740;28;20033;-56
2023/03/11 01:21:30;;;;;;;3.90;1.02;;;3.20;99.90;;;;;;5014956;28;20104;-54
2023/03/11 01:23:55;;;;;;;1.85;0.60;;;3.20;99.90;;;;;;5014953;28;20452;-53
2023/03/11 01:26:21;;;;;;;1.05;0.93;;;3.20;99.90;;;;;;5014813;28;20032;-52
2023/03/11 01:28:46;;;;;;;5.55;0.82;;;3.10;99.90;;;;;;5013374;28;20390;-58
2023/03/11 01:31:12;;;;;;;10.50;1.23;;;3.10;99.90;;;;;;5014764;28;20474;-56
2023/03/11 01:33:38;;;;;;;1.88;1.10;;;3.00;99.90;;;;;;5014800;28;20485;-53
2023/03/11 01:36:04;;;;;;;4.13;0.98;;;3.10;99.90;;;;;;5013254;28;20401;-53
2023/03/11 01:38:29;;;;;;;1.83;0.95;;;3.00;99.90;;;;;;5014393;28;20030;-53
2023/03/11 01:40:55;;;;;;;8.55;2.13;;;2.90;99.90;;;;;;5014639;28;20041;-55
2023/03/11 01:43:36;;;;;;;2.63;1.40;;;3.00;99.90;;;;;;5013136;28;20033;-51
2023/03/11 01:46:07;;;;;;;3.35;1.48;;;2.80;99.90;;;;;;5013092;28;20048;-55
2023/03/11 01:48:32;;;;;;;1.70;0.80;;;2.90;99.90;;;;;;5014313;28;20022;-52
2023/03/11 01:50:58;;;;;;;4.53;1.10;;;2.90;99.90;;;;;;5013838;28;20385;-51
2023/03/11 01:53:24;;;;;;;2.05;1.10;;;3.00;99.90;;;;;;5014396;28;20400;-53
2023/03/11 01:55:50;;;;;;;2.95;0.82;;;3.00;99.90;;;;;;5013319;28;20029;-54
2023/03/11 01:58:21;;;;;;;4.45;1.08;;;2.90;99.90;;;;;;5014487;28;20104;-56
2023/03/11 02:00:47;;;;;;;2.50;1.10;;;3.00;99.90;;;;;;5014162;28;20030;-51
2023/03/11 02:03:30;;;;;;;4.47;1.02;;;3.10;99.90;;;;;;5013988;28;20026;-51
2023/03/11 02:05:58;;;;;;;2.90;0.90;;;3.10;99.90;;;;;;5014218;28;20710;-53
2023/03/11 02:08:24;;;;;;;3.80;0.80;;;3.10;99.90;;;;;;5014044;28;20104;-53
2023/03/11 02:10:51;;;;;;;4.72;1.20;;;3.10;99.90;;;;;;5013958;28;20053;-53
2023/03/11 02:13:18;;;;;;;2.15;1.38;;;3.10;99.90;;;;;;5012377;28;20025;-53
2023/03/11 02:15:44;;;;;;;3.38;1.70;;;3.10;99.90;;;;;;5013800;28;20032;-52
2023/03/11 02:18:13;;;;;;;0.88;0.82;;;3.10;99.90;;;;;;5013759;28;20465;-55
2023/03/11 02:21:16;;;;;;;2.20;1.52;;;3.10;99.90;;;;;;5013691;28;20466;-53
2023/03/11 02:24:01;;;;;;;5.18;1.30;;;3.00;99.90;;;;;;5012439;28;20397;-54
2023/03/11 02:26:49;;;;;;;2.37;1.17;;;2.90;99.90;;;;;;5013687;28;20030;-55
2023/03/11 02:29:15;;;;;;;2.85;1.27;;;2.90;99.90;;;;;;5011914;28;20460;-57
2023/03/11 02:31:42;;;;;;;1.42;1.00;;;2.80;99.90;;;;;;5013604;28;20116;-51
2023/03/11 02:34:14;;;;;;;2.08;1.10;;;2.80;99.90;;;;;;5014101;28;20025;-55
2023/03/11 02:36:41;;;;;;;7.10;1.33;;;2.80;99.90;;;;;;5013476;28;20069;-54
2023/03/11 02:39:07;;;;;;;2.80;1.20;;;2.80;99.90;;;;;;5013549;28;20030;-53
2023/03/11 02:41:39;;;;;;;2.67;1.13;;;2.80;99.90;;;;;;5013487;28;20029;-51
2023/03/11 02:44:08;;;;;;;8.68;1.30;;;2.80;99.90;;;;;;5013257;28;20029;-56
2023/03/11 02:46:37;;;;;;;2.45;1.08;;;2.80;99.90;;;;;;5013237;28;20100;-54
2023/03/11 02:49:03;;;;;;;7.72;1.08;;;2.90;99.90;;;;;;5013569;28;20042;-54
2023/03/11 02:51:28;;;;;;;6.30;0.93;;;2.80;99.90;;;;;;5012987;28;20516;-56
2023/03/11 02:53:58;;;;;;;2.55;1.73;;;2.80;99.90;;;;;;5013238;28;20042;-54
2023/03/11 02:56:24;;;;;;;2.88;1.17;;;2.70;99.90;;;;;;5012938;28;20080;-57
2023/03/11 02:58:50;;;;;;;1.10;1.00;;;2.80;99.90;;;;;;5013021;28;20033;-55
2023/03/11 03:01:15;;;;;;;10.10;1.50;;;2.80;99.90;;;;;;5012670;28;20038;-53
2023/03/11 03:03:41;;;;;;;5.85;1.77;;;2.80;99.90;;;;;;5011574;28;20029;-53
2023/03/11 03:06:06;;;;;;;3.65;1.05;;;2.80;99.90;;;;;;5013191;28;20022;-54
2023/03/11 03:08:32;;;;;;;5.18;1.30;;;2.90;99.90;;;;;;5012710;28;20053;-54
2023/03/11 03:10:58;;;;;;;3.15;1.20;;;2.90;99.90;;;;;;5013266;28;20064;-53
2023/03/11 03:13:25;;;;;;;5.22;1.35;;;2.90;99.90;;;;;;5011634;28;20494;-51
2023/03/11 03:15:50;;;;;;;8.63;1.15;;;2.90;99.90;;;;;;5012600;28;20108;-51
2023/03/11 03:18:16;;;;;;;5.38;1.55;;;2.90;99.90;;;;;;5012719;28;20160;-52
2023/03/11 03:20:42;;;;;;;2.10;1.27;;;2.90;99.90;;;;;;5012844;28;20113;-53
2023/03/11 03:23:07;;;;;;;2.30;1.30;;;2.90;99.90;;;;;;5012553;28;20037;-50
2023/03/11 03:25:33;;;;;;;4.15;1.52;;;2.90;99.90;;;;;;5012563;28;20080;-55
2023/03/11 03:27:58;;;;;;;6.20;1.70;;;2.90;99.90;;;;;;5012474;28;20018;-54
2023/03/11 03:30:24;;;;;;;5.40;2.03;;;3.00;99.90;;;;;;5012617;28;20038;-52
2023/03/11 03:32:49;;;;;;;9.88;1.75;;;3.00;99.90;;;;;;5010983;28;20030;-53
2023/03/11 03:35:15;;;;;;;2.97;1.40;;;3.00;99.90;;;;;;5011955;28;20032;-50
2023/03/11 03:37:41;;;;;;;3.13;1.38;;;2.90;99.90;;;;;;5012422;28;20028;-53
2023/03/11 03:40:07;;;;;;;3.05;1.30;;;2.90;99.90;;;;;;5012360;28;20069;-55
2023/03/11 03:42:36;;;;;;;7.38;1.60;;;2.90;99.90;;;;;;5012165;28;20037;-50
2023/03/11 03:45:03;;;;;;;6.15;2.10;;;2.80;99.90;;;;;;5010948;28;20327;-51
2023/03/11 03:47:31;;;;;;;6.35;1.90;;;2.80;99.90;;;;;;5012008;28;20030;-53
2023/03/11 03:49:56;;;;;;;3.60;1.25;;;2.60;99.90;;;;;;5012004;28;20018;-52
2023/03/11 03:52:22;;;;;;;5.00;2.25;;;2.60;99.90;;;;;;5012058;28;20038;-55
2023/03/11 03:54:47;;;;;;;7.40;2.08;;;2.60;99.90;;;;;;5012126;28;20101;-54
2023/03/11 03:57:13;;;;;;;6.60;1.30;;;2.60;99.90;;;;;;5012123;28;20030;-53
2023/03/11 03:59:38;;;;;;;3.40;1.15;;;2.60;99.90;;;;;;5011926;28;20018;-56
2023/03/11 04:02:04;;;;;;;3.30;1.30;;;2.60;99.90;;;;;;5011864;28;20493;-53
2023/03/11 04:04:29;;;;;;;5.35;1.90;;;2.60;99.90;;;;;;5011923;28;20025;-52
2023/03/11 04:06:55;;;;;;;4.13;1.50;;;2.60;99.90;;;;;;5011854;28;20410;-53
2023/03/11 04:09:20;;;;;;;4.32;1.58;;;2.60;99.90;;;;;;5011534;28;20030;-53
2023/03/11 04:11:46;;;;;;;3.20;1.50;;;2.50;99.90;;;;;;5011787;28;20029;-51
2023/03/11 04:14:12;;;;;;;8.88;1.98;;;2.50;99.90;;;;;;5011459;28;20037;-53
2023/03/11 04:16:38;;;;;;;5.03;1.15;;;2.50;99.90;;;;;;5011599;28;20026;-51
2023/03/11 04:19:04;;;;;;;6.82;1.40;;;2.50;99.90;;;;;;5011225;28;20489;-53
2023/03/11 04:21:31;;;;;;;9.27;1.70;;;2.50;99.90;;;;;;5012176;28;20106;-54
2023/03/11 04:23:56;;;;;;;2.25;1.30;;;2.50;99.90;;;;;;5011702;28;20021;-53
2023/03/11 04:26:22;;;;;;;4.53;1.42;;;2.50;99.90;;;;;;5011783;28;20030;-53
2023/03/11 04:28:48;;;;;;;7.18;1.67;;;2.40;99.90;;;;;;5011420;28;20037;-54
2023/03/11 04:31:13;;;;;;;5.13;1.40;;;2.50;99.90;;;;;;5011753;28;20032;-52
2023/03/11 04:33:39;;;;;;;5.72;1.35;;;2.50;99.90;;;;;;5011647;28;20104;-56
2023/03/11 04:36:06;;;;;;;8.55;1.63;;;2.50;99.90;;;;;;5010456;28;20034;-53
2023/03/11 04:38:32;;;;;;;5.55;1.73;;;2.50;99.90;;;;;;5011283;28;20030;-54
2023/03/11 04:41:06;;;;;;;5.93;1.67;;;2.50;99.90;;;;;;5011627;28;20494;-54
2023/03/11 04:43:32;;;;;;;5.72;1.50;;;2.50;99.90;;;;;;5011678;28;20454;-52
2023/03/11 04:45:58;;;;;;;4.07;0.93;;;2.50;99.90;;;;;;5011502;28;20030;-56
2023/03/11 04:48:25;;;;;;;7.72;1.48;;;2.50;99.90;;;;;;5011486;28;20540;-53
2023/03/11 04:50:51;;;;;;;6.97;1.73;;;2.50;99.90;;;;;;5011284;28;20025;-52
2023/03/11 04:53:17;;;;;;;8.77;1.70;;;2.60;99.90;;;;;;5010174;28;20029;-53
2023/03/11 04:55:42;;;;;;;9.23;2.83;;;2.70;99.90;;;;;;5011113;28;20037;-53
2023/03/11 04:58:08;;;;;;;7.60;1.58;;;2.60;99.90;;;;;;5011162;28;20034;-51
2023/03/11 05:00:33;;;;;;;8.25;1.60;;;2.60;99.90;;;;;;5011496;28;20029;-51
2023/03/11 05:02:59;;;;;;;2.92;1.95;;;2.60;99.90;;;;;;5011153;28;20050;-54
2023/03/11 05:05:24;;;;;;;7.45;2.45;;;2.60;99.90;;;;;;5011254;28;20037;-51
2023/03/11 05:07:50;;;;;;;6.53;2.10;;;2.60;99.90;;;;;;5011385;28;20026;-56
2023/03/11 05:10:21;;;;;;;11.15;2.95;;;2.60;99.90;;;;;;5011148;28;20053;-51
2023/03/11 05:12:47;;;;;;;7.60;1.88;;;2.60;99.90;;;;;;5010840;28;20037;-56
2023/03/11 05:15:13;;;;;;;9.90;2.05;;;2.50;99.90;;;;;;5009570;28;20120;-55
2023/03/11 05:17:38;;;;;;;10.02;2.13;;;2.50;99.90;;;;;;5011270;28;20113;-51
2023/03/11 05:20:07;;;;;;;6.35;1.48;;;2.40;99.90;;;;;;5011129;28;20022;-51
2023/03/11 05:22:33;;;;;;;11.00;2.15;;;2.40;99.90;;;;;;5009783;28;20022;-51
2023/03/11 05:24:59;;;;;;;12.10;2.17;;;2.30;99.90;;;;;;5011091;28;20021;-51
2023/03/11 05:27:24;;;;;;;8.95;2.63;;;2.30;99.90;;;;;;5011129;28;20374;-49
2023/03/11 05:29:50;;;;;;;8.45;2.72;;;2.30;99.90;;;;;;5011506;28;20105;-59
2023/03/11 05:32:15;;;;;;;10.00;2.08;;;2.20;99.90;;;;;;5014611;28;20030;-54
2023/03/11 05:34:41;;;;;;;9.90;3.13;;;2.20;99.90;;;;;;5014537;28;20026;-54
2023/03/11 05:37:07;;;;;;;10.73;2.03;;;2.20;99.90;;;;;;5014477;28;20018;-51
2023/03/11 05:39:33;;;;;;;12.23;1.83;;;2.20;99.90;;;;;;5014466;28;20099;-52
2023/03/11 05:41:59;;;;;;;5.82;2.10;;;2.20;99.90;;;;;;5014336;28;20026;-50
2023/03/11 05:44:24;;;;;;;11.05;1.88;;;2.20;99.90;;;;;;5014582;28;20425;-56
2023/03/11 05:46:50;;;;;;;5.75;1.92;;;2.20;99.90;;;;;;5014204;28;20017;-52
2023/03/11 05:49:15;;;;;;;6.38;2.45;;;2.10;99.90;;;;;;5014037;28;20037;-54
2023/03/11 05:51:41;;;;;;;8.38;2.72;;;2.10;99.90;;;;;;5014287;28;20579;-55
2023/03/11 05:54:13;;;;;;;13.07;2.63;;;2.00;99.90;;;;;;5014300;28;20030;-55
2023/03/11 05:56:40;;;;;;;3.80;1.77;;;2.10;99.90;;;;;;5014038;28;20541;-54
2023/03/11 05:59:06;;;;;;;8.95;2.20;;;2.20;99.90;;;;;;5014119;28;20116;-54
2023/03/11 06:01:31;;;;;;;11.38;2.17;;;2.20;99.90;;;;;;5014099;28;20037;-51
2023/03/11 06:03:57;;;;;;;10.27;2.47;;;2.10;99.90;;;;;;5013954;28;20026;-56
2023/03/11 06:06:22;;;;;;;7.35;1.88;;;2.10;99.90;;;;;;5014590;28;20401;-55
2023/03/11 06:08:49;;;;;;;5.78;2.20;;;2.10;99.90;;;;;;5014392;28;20030;-55
2023/03/11 06:11:15;;;;;;;5.53;1.92;;;2.10;99.90;;;;;;5014208;28;20045;-56
2023/03/11 06:13:40;;;;;;;7.32;2.53;;;2.10;99.90;;;;;;5014266;28;20026;-55
2023/03/11 06:16:07;;;;;;;7.72;1.90;;;2.10;99.90;;;;;;5014209;28;20034;-50
2023/03/11 06:18:32;;;;;;;3.17;1.30;;;2.10;99.90;;;;;;5013812;28;20029;-52
2023/03/11 06:20:59;;;;;;;12.95;2.13;;;2.10;99.90;;;;;;5013667;28;20060;-53
2023/03/11 06:23:26;;;;;;;12.02;2.63;;;2.10;99.90;;;;;;5013307;28;20029;-54
2023/03/11 06:26:00;;;;;;;9.40;1.98;;;2.10;99.90;;;;;;5013633;28;20405;-52
2023/03/11 06:28:27;;;;;;;6.35;2.00;;;2.10;99.90;;;;;;5013494;28;20405;-54
2023/03/11 06:30:55;;;;;;;7.78;2.58;;;2.20;99.90;;;;;;5013535;28;20022;-47
2023/03/11 06:33:22;;;;;;;8.05;1.85;;;2.30;99.90;;;;;;5013636;28;20047;-55
2023/03/11 06:35:58;;;;;;;8.35;2.13;;;2.60;99.90;;;;;;5013439;28;20030;-55
2023/03/11 06:38:25;;;;;;;11.07;1.75;;;3.10;99.90;;;;;;5013447;28;20478;-53
2023/03/11 06:40:50;;;;;;;4.90;1.95;;;3.70;99.90;;;;;;5013012;28;20065;-58
2023/03/11 06:43:16;;;;;;;14.68;2.33;;;4.20;99.90;;;;;;5013335;28;20598;-58
2023/03/11 06:45:42;;;;;;;8.30;2.10;;;4.80;99.90;;;;;;5013218;28;20025;-54
2023/03/11 06:48:07;;;;;;;6.75;2.05;;;5.40;99.90;;;;;;5013179;28;20018;-55
2023/03/11 06:50:33;;;;;;;7.07;1.73;;;6.10;99.90;;;;;;5013201;28;20093;-53
2023/03/11 06:52:58;;;;;;;6.35;2.28;;;6.90;99.90;;;;;;5019732;23;20563;-51
2023/03/11 06:55:24;;;;;;;6.75;1.67;;;7.40;99.90;;;;;;4993370;28;20025;-47
2023/03/11 06:57:49;;;;;;;5.85;1.90;;;7.90;99.90;;;;;;4993770;28;20049;-49
2023/03/11 07:00:16;;;;;;;2.63;1.50;;;8.20;99.90;;;;;;4993539;28;20502;-49
2023/03/11 07:02:41;;;;;;;6.40;1.67;;;8.50;99.90;;;;;;4992950;28;20030;-47
2023/03/11 07:05:07;;;;;;;8.48;2.05;;;8.80;99.60;;;;;;4993509;28;20026;-47
2023/03/11 07:07:33;;;;;;;10.60;1.90;;;9.10;99.20;;;;;;4992442;28;20454;-49
2023/03/11 07:09:59;;;;;;;7.00;2.10;;;9.50;98.80;;;;;;4992478;28;20033;-48
2023/03/11 07:12:25;;;;;;;7.15;1.58;;;10.10;98.10;;;;;;4992985;28;20283;-48
2023/03/11 07:14:57;;;;;;;5.82;1.70;;;10.60;97.40;;;;;;4993255;28;20025;-52
2023/03/11 07:17:23;;;;;;;6.75;1.38;;;11.10;95.80;;;;;;4991841;28;20026;-50
2023/03/11 07:19:49;;;;;;;9.70;2.22;;;10.80;95.50;;;;;;5003480;28;20026;-52
2023/03/11 07:22:15;;;;;;;8.05;1.70;;;11.00;95.70;;;;;;5002027;28;20019;-52
2023/03/11 07:24:43;;;;;;;8.70;1.92;;;11.80;94.50;;;;;;4991237;28;20068;-46
2023/03/11 07:27:09;;;;;;;9.68;2.05;;;12.20;93.00;;;;;;4993011;28;20549;-48
2023/03/11 07:29:34;;;;;;;10.85;2.45;;;12.20;92.80;;;;;;4991543;28;20053;-53
2023/03/11 07:32:00;;;;;;;6.45;1.63;;;12.10;92.80;;;;;;4991768;28;20018;-53
2023/03/11 07:34:25;;;;;;;6.00;2.10;;;11.70;93.10;;;;;;4993032;28;20026;-51
2023/03/11 07:36:50;;;;;;;2.28;1.40;;;11.50;93.50;;;;;;4992380;28;20029;-49
2023/03/11 07:39:17;;;;;;;8.27;2.20;;;11.20;93.00;;;;;;4991214;28;20022;-55
2023/03/11 07:41:43;;;;;;;7.90;1.80;;;10.90;94.20;;;;;;4991339;28;20030;-54
2023/03/11 07:44:11;;;;;;;4.80;1.92;;;11.30;94.10;;;;;;4992659;28;20030;-56
2023/03/11 07:46:37;;;;;;;9.50;2.95;;;11.80;93.10;;;;;;4992619;28;20026;-55
2023/03/11 07:49:03;;;;;;;4.75;1.88;;;11.90;92.50;;;;;;4991316;28;20072;-49
2023/03/11 07:51:30;;;;;;;4.38;1.80;;;11.80;92.00;;;;;;4992431;28;20030;-51
2023/03/11 07:53:57;;;;;;;7.18;1.52;;;11.30;92.30;;;;;;4992235;28;20085;-52
2023/03/11 07:56:25;;;;;;;5.07;1.60;;;10.50;93.60;;;;;;4992518;28;20506;-50
2023/03/11 07:58:51;;;;;;;5.43;1.88;;;9.70;94.30;;;;;;4993068;28;20057;-51
2023/03/11 08:01:20;;;;;;;9.52;1.95;;;8.90;95.10;;;;;;4991753;28;20033;-54
2023/03/11 08:03:48;;;;;;;6.03;1.42;;;8.20;94.70;;;;;;4990717;28;20030;-52
2023/03/11 08:06:18;;;;;;;5.80;1.40;;;7.70;95.80;;;;;;4992249;28;20030;-49
2023/03/11 08:08:44;;;;;;;3.50;1.63;;;7.30;95.90;;;;;;4992238;28;20018;-52
2023/03/11 08:11:12;;;;;;;6.55;2.05;;;6.90;97.00;;;;;;4992378;28;20153;-55
2023/03/11 08:13:37;;;;;;;7.05;1.77;;;6.90;97.00;;;;;;4990622;28;20023;-50
2023/03/11 08:16:04;;;;;;;5.82;1.70;;;6.70;96.60;;;;;;4990366;28;20057;-52
2023/03/11 08:18:30;;;;;;;7.10;1.52;;;6.30;97.20;;;;;;4991224;28;20028;-51
2023/03/11 08:20:56;;;;;;;7.00;2.63;;;6.20;97.10;;;;;;4991441;28;20112;-56
2023/03/11 08:23:22;;;;;;;8.75;1.70;;;6.00;97.60;;;;;;4989883;28;20033;-52
2023/03/11 08:25:47;;;;;;;5.78;1.70;;;5.90;98.30;;;;;;4990069;28;20038;-49
2023/03/11 08:28:13;;;;;;;6.43;1.70;;;5.80;98.80;;;;;;4990382;28;20030;-48
2023/03/11 08:30:38;;;;;;;4.82;1.52;;;5.90;98.10;;;;;;4991514;28;20030;-53
2023/03/11 08:33:04;;;;;;;12.60;1.40;;;5.70;98.00;;;;;;4991451;28;20038;-53
2023/03/11 08:35:30;;;;;;;5.70;1.50;;;5.90;98.10;;;;;;4983448;28;20027;-46
2023/03/11 08:37:56;;;;;;;5.93;1.90;;;5.80;98.00;;;;;;4991563;28;20026;-49
2023/03/11 08:40:22;;;;;;;7.97;1.88;;;5.90;98.10;;;;;;4991821;28;20146;-50
2023/03/11 08:42:47;;;;;;;9.90;1.60;;;5.60;98.40;;;;;;4990568;28;20038;-54
2023/03/11 08:45:13;;;;;;;6.05;2.13;;;5.70;98.80;;;;;;4991911;28;20030;-51
2023/03/11 08:47:39;;;;;;;8.15;2.13;;;5.80;99.20;;;;;;4992032;28;20101;-52
2023/03/11 08:50:07;;;;;;;3.30;1.23;;;5.90;98.30;;;;;;4991526;28;20497;-50
2023/03/11 08:52:33;;;;;;;4.47;1.55;;;5.90;97.10;;;;;;4991653;28;20413;-50
2023/03/11 08:54:58;;;;;;;4.20;1.27;;;6.00;97.10;;;;;;4992060;28;20018;-55
2023/03/11 08:57:24;;;;;;;7.75;2.30;;;6.20;97.30;;;;;;4990306;28;20549;-49
2023/03/11 08:59:49;;;;;;;7.63;1.90;;;6.30;97.50;;;;;;4990387;28;20030;-56
2023/03/11 09:02:15;;;;;;;7.15;2.35;;;6.40;97.30;;;;;;4991546;28;20027;-50
2023/03/11 09:04:40;;;;;;;2.25;0.98;;;6.30;97.50;;;;;;4994020;28;20018;-53
2023/03/11 09:07:06;;;;;;;9.75;1.83;;;6.40;97.70;;;;;;4995710;28;20022;-53
2023/03/11 09:09:31;;;;;;;11.68;1.70;;;6.40;97.60;;;;;;4994292;28;20022;-52
2023/03/11 09:11:57;;;;;;;7.93;2.25;;;6.40;97.90;;;;;;4995492;28;20026;-55
2023/03/11 09:14:22;;;;;;;9.23;1.52;;;6.30;97.60;;;;;;4995604;28;20461;-53
2023/03/11 09:16:48;;;;;;;8.38;1.77;;;6.20;97.90;;;;;;4995454;28;20486;-49
2023/03/11 09:19:13;;;;;;;7.10;1.60;;;6.20;98.20;;;;;;4995257;28;20161;-52
2023/03/11 09:21:39;;;;;;;11.95;1.67;;;6.30;98.40;;;;;;4995144;28;20026;-53
2023/03/11 09:24:05;;;;;;;1.98;1.00;;;6.60;97.40;;;;;;4994429;28;20116;-51
2023/03/11 09:26:31;;;;;;;3.95;1.30;;;7.30;95.70;;;;;;4994491;28;20037;-50
2023/03/11 09:28:57;;;;;;;1.98;1.20;;;7.80;95.40;;;;;;4994326;28;20018;-52
2023/03/11 09:31:22;;;;;;;7.68;1.15;;;8.80;94.60;;;;;;4994664;28;20027;-53
2023/03/11 09:33:51;;;;;;;5.45;0.90;;;8.80;91.90;;;;;;4995296;28;20437;-48
2023/03/11 09:36:19;;;;;;;2.08;1.27;;;9.10;92.30;;;;;;4995206;28;20065;-51
2023/03/11 09:38:45;;;;;;;3.83;1.40;;;8.90;91.10;;;;;;4995219;28;20105;-48
2023/03/11 09:41:16;;;;;;;4.72;1.20;;;8.10;91.80;;;;;;4995075;28;20042;-53
2023/03/11 09:44:09;;;;;;;5.53;1.35;;;7.10;92.00;;;;;;4995604;28;20034;-47
2023/03/11 09:46:54;;;;;;;4.70;1.20;;;7.30;93.40;;;;;;4995181;28;20026;-56
2023/03/11 09:49:28;;;;;;;5.38;1.00;;;8.60;93.50;;;;;;4994722;28;20058;-51
2023/03/11 09:52:17;;;;;;;4.65;1.20;;;10.20;91.70;;;;;;4993555;28;20056;-53
2023/03/11 09:54:49;;;;;;;3.55;1.25;;;11.80;87.70;;;;;;4994461;28;20041;-49
2023/03/11 09:57:21;;;;;;;2.33;1.08;;;12.30;81.60;;;;;;4993508;28;20026;-51
2023/03/11 09:59:47;;;;;;;3.92;1.75;;;10.90;83.30;;;;;;4994578;28;20061;-50
2023/03/11 10:02:25;;;;;;;5.05;1.63;;;10.20;86.00;;;;;;4994267;28;20117;-49
2023/03/11 10:04:57;;;;;;;3.97;1.23;;;9.50;88.60;;;;;;4994692;28;20026;-53
2023/03/11 10:07:30;;;;;;;2.28;1.35;;;8.10;90.20;;;;;;4993693;28;20022;-55
2023/03/11 10:09:57;;;;;;;7.30;1.40;;;7.20;93.00;;;;;;4991890;28;20464;-49
2023/03/11 10:12:38;;;;;;;7.30;1.33;;;6.70;93.10;;;;;;4994464;28;20490;-48
2023/03/11 10:15:26;;;;;;;2.83;1.27;;;6.60;94.10;;;;;;4989063;28;20042;-51
2023/03/11 10:18:00;;;;;;;4.07;1.15;;;6.50;94.10;;;;;;4994540;28;20053;-49
2023/03/11 10:21:07;;;;;;;3.88;1.40;;;6.50;94.70;;;;;;4993813;28;20601;-52
2023/03/11 10:23:56;;;;;;;2.08;1.40;;;6.20;93.70;;;;;;4986693;28;20042;-55
2023/03/11 10:26:31;;;;;;;4.60;1.50;;;5.50;94.00;;;;;;5006631;28;20026;-49
2023/03/11 10:29:26;;;;;;;2.72;1.45;;;5.40;94.40;;;;;;4986119;28;20045;-49
2023/03/11 10:32:09;;;;;;;3.78;1.05;;;5.40;93.70;;;;;;4993571;28;20137;-48
2023/03/11 10:34:51;;;;;;;7.03;1.98;;;5.80;93.00;;;;;;4992403;28;20026;-52
2023/03/11 10:37:31;;;;;;;3.20;1.27;;;6.00;93.50;;;;;;4989391;28;20579;-53
2023/03/11 10:40:06;;;;;;;4.70;1.30;;;6.60;93.40;;;;;;4991617;28;20025;-48
2023/03/11 10:42:33;;;;;;;4.20;1.10;;;6.90;92.60;;;;;;4993188;28;20037;-50
2023/03/11 10:44:59;;;;;;;1.70;1.50;;;7.00;91.70;;;;;;4991070;28;20454;-50
2023/03/11 10:47:25;;;;;;;7.88;1.75;;;7.10;91.90;;;;;;5000656;28;20017;-53
2023/03/11 10:49:54;;;;;;;75.95;40.05;;;7.00;91.60;;;;;;4995367;28;20022;-49
2023/03/11 10:52:19;;;;;;;9.20;2.95;;;7.10;91.50;;;;;;4993284;28;20038;-52
2023/03/11 10:54:48;;;;;;;5.05;1.58;;;7.00;92.10;;;;;;4993324;28;20084;-50
2023/03/11 10:57:35;;;;;;;2.90;1.27;;;7.00;91.50;;;;;;4993294;28;20034;-53
2023/03/11 11:00:15;;;;;;;5.10;1.35;;;6.70;92.00;;;;;;4993169;28;20105;-49
2023/03/11 11:02:50;;;;;;;8.20;1.42;;;6.80;92.20;;;;;;4991960;28;20027;-47
2023/03/11 11:05:21;;;;;;;9.02;1.55;;;6.60;92.80;;;;;;4993035;28;20485;-47
2023/03/11 11:07:49;;;;;;;3.70;1.25;;;6.50;93.10;;;;;;4993003;28;20026;-46
2023/03/11 11:10:23;;;;;;;4.72;1.00;;;6.30;93.30;;;;;;4992682;28;20077;-49
2023/03/11 11:13:07;;;;;;;3.35;1.20;;;6.40;93.20;;;;;;4993086;28;20031;-50
2023/03/11 11:15:51;;;;;;;3.28;1.33;;;6.50;93.20;;;;;;4992218;28;20062;-58
2023/03/11 11:18:22;;;;;;;4.10;1.13;;;6.50;93.10;;;;;;4992052;28;20371;-53
2023/03/11 11:21:03;;;;;;;3.45;1.23;;;6.60;92.50;;;;;;4992684;28;20172;-49
2023/03/11 11:23:35;;;;;;;3.08;1.30;;;6.50;92.00;;;;;;4992683;28;20029;-50
2023/03/11 11:26:05;;;;;;;5.50;1.42;;;6.30;92.60;;;;;;4992959;28;20431;-51
2023/03/11 11:28:32;;;;;;;3.55;1.27;;;6.30;92.30;;;;;;4991713;28;20027;-51
2023/03/11 11:31:02;;;;;;;3.70;1.27;;;6.30;92.80;;;;;;5001807;28;20101;-52
2023/03/11 11:33:37;;;;;;;2.28;1.63;;;6.20;93.30;;;;;;5011539;28;20028;-54
2023/03/11 11:36:04;;;;;;;4.25;1.63;;;6.20;92.90;;;;;;4990966;28;20092;-52
2023/03/11 11:38:31;;;;;;;6.43;2.03;;;6.20;93.00;;;;;;4991617;28;20026;-46
2023/03/11 11:41:01;;;;;;;4.07;3.05;;;6.20;92.60;;;;;;4989842;28;20502;-48
2023/03/11 11:43:54;;;;;;;3.25;1.30;;;6.20;92.90;;;;;;4991700;28;20030;-50
2023/03/11 11:46:40;;;;;;;1.83;1.00;;;6.30;92.40;;;;;;4992017;28;20101;-51
2023/03/11 11:49:27;;;;;;;3.65;1.30;;;6.40;92.60;;;;;;4991881;28;20022;-55
2023/03/11 11:51:56;;;;;;;3.55;1.10;;;6.40;92.50;;;;;;4989917;28;20141;-49
2023/03/11 11:54:57;;;;;;;2.05;1.25;;;6.40;92.80;;;;;;4982606;28;20037;-52
2023/03/11 11:57:23;;;;;;;3.88;1.13;;;6.60;92.50;;;;;;4909655;29;20111;-49
2023/03/11 11:59:49;;;;;;;4.93;1.10;;;6.50;92.40;;;;;;4970634;28;20104;-47
2023/03/11 12:02:41;;;;;;;6.82;1.45;;;6.50;92.40;;;;;;4989949;28;20034;-48
2023/03/11 12:05:09;;;;;;;4.30;1.80;;;6.50;92.90;;;;;;4991643;28;20049;-52
2023/03/11 12:08:09;;;;;;;3.92;1.40;;;6.40;93.30;;;;;;4991749;28;20018;-50
2023/03/11 12:11:04;;;;;;;7.43;1.50;;;6.40;93.30;;;;;;4990026;28;20030;-49
2023/03/11 12:13:39;;;;;;;5.07;1.67;;;6.50;93.30;;;;;;4981481;28;20042;-52
2023/03/11 12:16:13;;;;;;;6.97;2.33;;;6.60;93.40;;;;;;4989711;28;20046;-49
2023/03/11 12:18:46;;;;;;;4.40;1.30;;;6.70;93.70;;;;;;4991192;28;20041;-51
2023/03/11 12:21:11;;;;;;;2.42;1.92;;;6.60;93.50;;;;;;4990611;28;20065;-49
2023/03/11 12:23:53;;;;;;;2.08;1.00;;;6.50;93.80;;;;;;4991340;28;20057;-46
2023/03/11 12:26:25;;;;;;;6.13;1.60;;;6.40;93.40;;;;;;4989108;28;20072;-53
2023/03/11 12:29:20;;;;;;;6.40;2.05;;;6.30;93.60;;;;;;5007144;28;20033;-46
2023/03/11 12:31:46;;;;;;;6.40;1.77;;;6.50;93.90;;;;;;4993653;28;20034;-52
2023/03/11 12:34:16;;;;;;;3.13;1.20;;;6.60;92.90;;;;;;4991586;28;20092;-53
2023/03/11 12:36:44;;;;;;;4.18;1.50;;;6.60;93.10;;;;;;4991253;28;20086;-49
2023/03/11 12:39:31;;;;;;;5.82;1.95;;;6.70;92.70;;;;;;4991511;28;20117;-50
2023/03/11 12:42:17;;;;;;;5.20;1.20;;;6.70;92.90;;;;;;4995212;28;20022;-51
2023/03/11 12:44:44;;;;;;;7.57;1.50;;;6.90;92.40;;;;;;4995880;28;20054;-51
2023/03/11 12:47:10;;;;;;;3.08;1.15;;;7.00;91.90;;;;;;4995010;28;20026;-53
2023/03/11 12:49:37;;;;;;;5.30;1.58;;;7.00;91.90;;;;;;4993687;28;20025;-50
2023/03/11 12:52:14;;;;;;;3.05;1.58;;;7.10;92.00;;;;;;4995300;28;20037;-47
2023/03/11 12:54:48;;;;;;;5.78;1.08;;;7.00;91.90;;;;;;5024847;23;20045;-51
2023/03/11 12:57:19;;;;;;;31.73;17.75;;;7.00;92.00;;;;;;5011318;28;20076;-52
2023/03/11 13:00:08;;;;;;;14.05;7.10;;;6.90;91.70;;;;;;4994407;28;20046;-56
2023/03/11 13:02:52;;;;;;;3.83;1.48;;;6.90;91.60;;;;;;5005302;28;20026;-50
2023/03/11 13:05:55;;;;;;;5.75;1.58;;;6.90;91.50;;;;;;4995042;28;20026;-50